sensor_id;sensor_type;location;lat;lon;timestamp;pressure;altitude;pressure_sealevel;temperature;humidity
18323;BME280;9287;49.456;11.064;2024-02-26T00:00:17;96520.88;;;4.65;100.00
18323;BME280;9287;49.456;11.064;2024-02-26T00:02:46;96512.16;;;4.56;100.00
18323;BME280;9287;49.456;11.064;2024-02-26T00:05:14;96505.47;;;4.50;100.00
18323;BME280;9287;49.456;11.064;2024-02-26T00:07:41;96502.75;;;4.50;100.00
18323;BME280;9287;49.456;11.064;2024-02-26T00:10:10;96501.97;;;4.49;100.00
18323;BME280;9287;49.456;11.064;2024-02-26T00:12:39;96494.22;;;4.48;100.00
18323;BME280;9287;49.456;11.064;2024-02-26T00:15:08;96491.75;;;4.43;100.00
18323;BME280;9287;49.456;11.064;2024-02-26T00:17:37;96492.09;;;4.41;100.00
18323;BME280;9287;49.456;11.064;2024-02-26T00:20:06;96493.22;;;4.40;100.00
18323;BME280;9287;49.456;11.064;2024-02-26T00:22:35;96488.59;;;4.41;100.00
18323;BME280;9287;49.456;11.064;2024-02-26T00:25:04;96485.66;;;4.46;100.00
18323;BME280;9287;49.456;11.064;2024-02-26T00:27:32;96483.22;;;4.41;100.00
18323;BME280;9287;49.456;11.064;2024-02-26T00:30:01;96486.16;;;4.36;100.00
18323;BME280;9287;49.456;11.064;2024-02-26T00:32:29;96479.03;;;4.28;100.00
18323;BME280;9287;49.456;11.064;2024-02-26T00:34:57;96483.81;;;4.34;100.00
18323;BME280;9287;49.456;11.064;2024-02-26T00:37:25;96474.22;;;4.37;100.00
18323;BME280;9287;49.456;11.064;2024-02-26T00:39:53;96472.94;;;4.31;100.00
18323;BME280;9287;49.456;11.064;2024-02-26T00:42:21;96461.41;;;4.34;100.00
18323;BME280;9287;49.456;11.064;2024-02-26T00:44:49;96471.50;;;4.37;100.00
18323;BME280;9287;49.456;11.064;2024-02-26T00:47:18;96464.88;;;4.34;100.00
18323;BME280;9287;49.456;11.064;2024-02-26T00:49:46;96469.09;;;4.32;100.00
18323;BME280;9287;49.456;11.064;2024-02-26T00:52:14;96469.69;;;4.25;100.00
18323;BME280;9287;49.456;11.064;2024-02-26T00:54:41;96465.06;;;4.26;100.00
18323;BME280;9287;49.456;11.064;2024-02-26T00:57:09;96469.78;;;4.29;100.00
18323;BME280;9287;49.456;11.064;2024-02-26T00:59:38;96468.03;;;4.20;100.00
18323;BME280;9287;49.456;11.064;2024-02-26T01:02:06;96473.44;;;4.20;100.00
18323;BME280;9287;49.456;11.064;2024-02-26T01:04:37;96478.81;;;4.20;100.00
18323;BME280;9287;49.456;11.064;2024-02-26T01:07:05;96478.66;;;4.13;100.00
18323;BME280;9287;49.456;11.064;2024-02-26T01:09:33;96480.91;;;4.11;100.00
18323;BME280;9287;49.456;11.064;2024-02-26T01:12:01;96481.81;;;4.15;100.00
18323;BME280;9287;49.456;11.064;2024-02-26T01:14:29;96470.56;;;4.13;100.00
18323;BME280;9287;49.456;11.064;2024-02-26T01:16:57;96471.25;;;4.10;100.00
18323;BME280;9287;49.456;11.064;2024-02-26T01:19:24;96467.13;;;4.16;100.00
18323;BME280;9287;49.456;11.064;2024-02-26T01:21:54;96485.63;;;4.14;100.00
18323;BME280;9287;49.456;11.064;2024-02-26T01:24:22;96475.63;;;4.15;100.00
18323;BME280;9287;49.456;11.064;2024-02-26T01:26:49;96479.78;;;4.12;100.00
18323;BME280;9287;49.456;11.064;2024-02-26T01:29:17;96479.53;;;4.17;100.00
18323;BME280;9287;49.456;11.064;2024-02-26T01:31:45;96483.88;;;4.06;100.00
18323;BME280;9287;49.456;11.064;2024-02-26T01:34:16;96476.72;;;3.98;100.00
18323;BME280;9287;49.456;11.064;2024-02-26T01:36:44;96470.03;;;4.08;100.00
18323;BME280;9287;49.456;11.064;2024-02-26T01:39:14;96471.31;;;3.98;100.00
18323;BME280;9287;49.456;11.064;2024-02-26T01:41:41;96462.25;;;4.06;100.00
18323;BME280;9287;49.456;11.064;2024-02-26T01:44:11;96463.56;;;3.97;100.00
18323;BME280;9287;49.456;11.064;2024-02-26T01:46:40;96466.41;;;3.88;100.00
18323;BME280;9287;49.456;11.064;2024-02-26T01:49:11;96452.91;;;3.88;100.00
18323;BME280;9287;49.456;11.064;2024-02-26T01:51:41;96453.78;;;3.92;100.00
18323;BME280;9287;49.456;11.064;2024-02-26T01:54:10;96449.53;;;3.91;100.00
18323;BME280;9287;49.456;11.064;2024-02-26T01:56:40;96453.63;;;4.01;100.00
18323;BME280;9287;49.456;11.064;2024-02-26T01:59:08;96451.00;;;4.04;100.00
18323;BME280;9287;49.456;11.064;2024-02-26T02:01:38;96443.59;;;4.01;100.00
18323;BME280;9287;49.456;11.064;2024-02-26T02:04:07;96453.03;;;4.07;100.00
18323;BME280;9287;49.456;11.064;2024-02-26T02:06:35;96459.13;;;4.04;100.00
18323;BME280;9287;49.456;11.064;2024-02-26T02:09:04;96449.09;;;3.89;100.00
18323;BME280;9287;49.456;11.064;2024-02-26T02:11:34;96451.09;;;3.92;100.00
18323;BME280;9287;49.456;11.064;2024-02-26T02:14:03;96447.38;;;3.97;100.00
18323;BME280;9287;49.456;11.064;2024-02-26T02:16:31;96455.28;;;4.05;100.00
18323;BME280;9287;49.456;11.064;2024-02-26T02:18:59;96461.81;;;4.04;100.00
18323;BME280;9287;49.456;11.064;2024-02-26T02:21:28;96456.63;;;4.11;100.00
18323;BME280;9287;49.456;11.064;2024-02-26T02:23:56;96464.19;;;4.22;100.00
18323;BME280;9287;49.456;11.064;2024-02-26T02:26:24;96468.56;;;4.10;100.00
18323;BME280;9287;49.456;11.064;2024-02-26T02:28:53;96456.34;;;4.16;100.00
18323;BME280;9287;49.456;11.064;2024-02-26T02:31:20;96455.66;;;4.19;100.00
18323;BME280;9287;49.456;11.064;2024-02-26T02:33:48;96459.56;;;4.22;100.00
18323;BME280;9287;49.456;11.064;2024-02-26T02:36:16;96461.25;;;4.27;100.00
18323;BME280;9287;49.456;11.064;2024-02-26T02:38:50;96466.75;;;4.30;100.00
18323;BME280;9287;49.456;11.064;2024-02-26T02:41:18;96465.06;;;4.26;100.00
18323;BME280;9287;49.456;11.064;2024-02-26T02:43:46;96464.38;;;4.29;100.00
18323;BME280;9287;49.456;11.064;2024-02-26T02:46:14;96467.00;;;4.41;100.00
18323;BME280;9287;49.456;11.064;2024-02-26T02:48:42;96462.28;;;4.38;100.00
18323;BME280;9287;49.456;11.064;2024-02-26T02:51:10;96467.97;;;4.33;100.00
18323;BME280;9287;49.456;11.064;2024-02-26T02:53:38;96467.09;;;4.44;100.00
18323;BME280;9287;49.456;11.064;2024-02-26T02:56:07;96459.75;;;4.45;100.00
18323;BME280;9287;49.456;11.064;2024-02-26T02:58:35;96462.13;;;4.46;100.00
18323;BME280;9287;49.456;11.064;2024-02-26T03:01:03;96453.91;;;4.43;100.00
18323;BME280;9287;49.456;11.064;2024-02-26T03:03:31;96457.75;;;4.42;100.00
18323;BME280;9287;49.456;11.064;2024-02-26T03:05:58;96453.13;;;4.42;100.00
18323;BME280;9287;49.456;11.064;2024-02-26T03:08:26;96458.53;;;4.42;100.00
18323;BME280;9287;49.456;11.064;2024-02-26T03:10:53;96448.97;;;4.29;100.00
18323;BME280;9287;49.456;11.064;2024-02-26T03:13:22;96441.88;;;4.25;100.00
18323;BME280;9287;49.456;11.064;2024-02-26T03:15:50;96446.59;;;4.28;100.00
18323;BME280;9287;49.456;11.064;2024-02-26T03:18:18;96448.34;;;4.36;100.00
18323;BME280;9287;49.456;11.064;2024-02-26T03:20:46;96443.81;;;4.40;100.00
18323;BME280;9287;49.456;11.064;2024-02-26T03:23:14;96443.09;;;4.43;100.00
18323;BME280;9287;49.456;11.064;2024-02-26T03:25:44;96440.16;;;4.48;100.00
18323;BME280;9287;49.456;11.064;2024-02-26T03:28:14;96438.59;;;4.47;100.00
18323;BME280;9287;49.456;11.064;2024-02-26T03:30:43;96444.25;;;4.42;100.00
18323;BME280;9287;49.456;11.064;2024-02-26T03:33:11;96452.34;;;4.42;100.00
18323;BME280;9287;49.456;11.064;2024-02-26T03:35:39;96455.50;;;4.44;100.00
18323;BME280;9287;49.456;11.064;2024-02-26T03:38:07;96456.19;;;4.41;100.00
18323;BME280;9287;49.456;11.064;2024-02-26T03:40:35;96459.31;;;4.43;100.00
18323;BME280;9287;49.456;11.064;2024-02-26T03:43:03;96461.78;;;4.48;100.00
18323;BME280;9287;49.456;11.064;2024-02-26T03:45:32;96456.44;;;4.36;100.00
18323;BME280;9287;49.456;11.064;2024-02-26T03:48:02;96456.88;;;4.38;100.00
18323;BME280;9287;49.456;11.064;2024-02-26T03:50:30;96456.19;;;4.41;100.00
18323;BME280;9287;49.456;11.064;2024-02-26T03:52:58;96453.91;;;4.43;100.00
18323;BME280;9287;49.456;11.064;2024-02-26T03:55:26;96452.94;;;4.35;100.00
18323;BME280;9287;49.456;11.064;2024-02-26T03:57:54;96449.66;;;4.26;100.00
18323;BME280;9287;49.456;11.064;2024-02-26T04:00:22;96447.28;;;4.25;100.00
18323;BME280;9287;49.456;11.064;2024-02-26T04:02:52;96447.28;;;4.25;100.00
18323;BME280;9287;49.456;11.064;2024-02-26T04:05:21;96444.25;;;4.26;100.00
18323;BME280;9287;49.456;11.064;2024-02-26T04:07:49;96449.56;;;4.23;100.00
18323;BME280;9287;49.456;11.064;2024-02-26T04:10:16;96460.56;;;4.30;100.00
18323;BME280;9287;49.456;11.064;2024-02-26T04:12:44;96462.56;;;4.33;100.00
18323;BME280;9287;49.456;11.064;2024-02-26T04:15:12;96459.13;;;4.36;100.00
18323;BME280;9287;49.456;11.064;2024-02-26T04:17:41;96471.59;;;4.25;100.00
18323;BME280;9287;49.456;11.064;2024-02-26T04:20:14;96466.81;;;4.34;100.00
18323;BME280;9287;49.456;11.064;2024-02-26T04:22:44;96467.00;;;4.41;100.00
18323;BME280;9287;49.456;11.064;2024-02-26T04:25:12;96467.25;;;4.36;100.00
18323;BME280;9287;49.456;11.064;2024-02-26T04:27:40;96466.13;;;4.37;100.00
18323;BME280;9287;49.456;11.064;2024-02-26T04:30:08;96468.13;;;4.40;100.00
18323;BME280;9287;49.456;11.064;2024-02-26T04:32:36;96459.31;;;4.43;100.00
18323;BME280;9287;49.456;11.064;2024-02-26T04:35:05;96464.09;;;4.34;100.00
18323;BME280;9287;49.456;11.064;2024-02-26T04:37:33;96456.88;;;4.38;100.00
18323;BME280;9287;49.456;11.064;2024-02-26T04:40:02;96466.22;;;4.40;100.00
18323;BME280;9287;49.456;11.064;2024-02-26T04:42:31;96470.03;;;4.39;100.00
18323;BME280;9287;49.456;11.064;2024-02-26T04:44:59;96482.50;;;4.44;100.00
18323;BME280;9287;49.456;11.064;2024-02-26T04:47:26;96475.72;;;4.50;100.00
18323;BME280;9287;49.456;11.064;2024-02-26T04:49:54;96470.38;;;4.53;100.00
18323;BME280;9287;49.456;11.064;2024-02-26T04:52:22;96474.16;;;4.49;100.00
18323;BME280;9287;49.456;11.064;2024-02-26T04:54:50;96476.56;;;4.38;100.00
18323;BME280;9287;49.456;11.064;2024-02-26T04:57:19;96479.47;;;4.45;100.00
18323;BME280;9287;49.456;11.064;2024-02-26T04:59:47;96485.81;;;4.53;100.00
18323;BME280;9287;49.456;11.064;2024-02-26T05:02:15;96481.81;;;4.47;100.00
18323;BME280;9287;49.456;11.064;2024-02-26T05:04:43;96475.00;;;4.37;100.00
18323;BME280;9287;49.456;11.064;2024-02-26T05:07:11;96473.00;;;4.34;100.00
18323;BME280;9287;49.456;11.064;2024-02-26T05:09:40;96474.84;;;4.46;100.00
18323;BME280;9287;49.456;11.064;2024-02-26T05:12:08;96471.84;;;4.51;100.00
18323;BME280;9287;49.456;11.064;2024-02-26T05:14:39;96474.16;;;4.49;100.00
18323;BME280;9287;49.456;11.064;2024-02-26T05:17:06;96468.66;;;4.45;100.00
18323;BME280;9287;49.456;11.064;2024-02-26T05:19:34;96463.84;;;4.39;100.00
18323;BME280;9287;49.456;11.064;2024-02-26T05:22:02;96470.13;;;4.43;100.00
18323;BME280;9287;49.456;11.064;2024-02-26T05:24:30;96472.59;;;4.48;100.00
18323;BME280;9287;49.456;11.064;2024-02-26T05:27:00;96473.53;;;4.55;100.00
18323;BME280;9287;49.456;11.064;2024-02-26T05:29:28;96477.25;;;4.51;100.00
18323;BME280;9287;49.456;11.064;2024-02-26T05:31:57;96482.50;;;4.44;100.00
18323;BME280;9287;49.456;11.064;2024-02-26T05:34:25;96490.19;;;4.42;100.00
18323;BME280;9287;49.456;11.064;2024-02-26T05:36:53;96496.47;;;4.46;100.00
18323;BME280;9287;49.456;11.064;2024-02-26T05:39:21;96502.38;;;4.36;100.00
18323;BME280;9287;49.456;11.064;2024-02-26T05:41:49;96504.13;;;4.44;100.00
18323;BME280;9287;49.456;11.064;2024-02-26T05:44:16;96497.28;;;4.18;100.00
18323;BME280;9287;49.456;11.064;2024-02-26T05:46:44;96499.75;;;4.24;100.00
18323;BME280;9287;49.456;11.064;2024-02-26T05:49:13;96516.94;;;4.31;100.00
18323;BME280;9287;49.456;11.064;2024-02-26T05:51:41;96518.22;;;4.22;100.00
18323;BME280;9287;49.456;11.064;2024-02-26T05:54:09;96510.75;;;4.31;100.00
18323;BME280;9287;49.456;11.064;2024-02-26T05:56:37;96510.75;;;4.31;100.00
18323;BME280;9287;49.456;11.064;2024-02-26T05:59:05;96511.81;;;4.42;100.00
18323;BME280;9287;49.456;11.064;2024-02-26T06:01:33;96520.25;;;4.40;100.00
18323;BME280;9287;49.456;11.064;2024-02-26T06:04:01;96510.91;;;4.38;100.00
18323;BME280;9287;49.456;11.064;2024-02-26T06:06:30;96515.88;;;4.36;100.00
18323;BME280;9287;49.456;11.064;2024-02-26T06:08:58;96516.50;;;4.29;100.00
18323;BME280;9287;49.456;11.064;2024-02-26T06:11:26;96511.59;;;4.35;100.00
18323;BME280;9287;49.456;11.064;2024-02-26T06:13:54;96526.09;;;4.27;100.00
18323;BME280;9287;49.456;11.064;2024-02-26T06:16:22;96516.16;;;4.31;100.00
18323;BME280;9287;49.456;11.064;2024-02-26T06:18:50;96517.28;;;4.30;100.00
18323;BME280;9287;49.456;11.064;2024-02-26T06:21:18;96505.06;;;4.36;100.00
18323;BME280;9287;49.456;11.064;2024-02-26T06:23:47;96508.50;;;4.33;100.00
18323;BME280;9287;49.456;11.064;2024-02-26T06:26:16;96511.44;;;4.28;100.00
18323;BME280;9287;49.456;11.064;2024-02-26T06:28:44;96519.47;;;4.40;100.00
18323;BME280;9287;49.456;11.064;2024-02-26T06:31:12;96516.25;;;4.50;100.00
18323;BME280;9287;49.456;11.064;2024-02-26T06:33:39;96521.41;;;4.55;100.00
18323;BME280;9287;49.456;11.064;2024-02-26T06:36:07;96528.38;;;4.56;100.00
18323;BME280;9287;49.456;11.064;2024-02-26T06:38:35;96534.91;;;4.71;100.00
18323;BME280;9287;49.456;11.064;2024-02-26T06:41:04;96527.88;;;4.66;100.00
18323;BME280;9287;49.456;11.064;2024-02-26T06:43:32;96537.56;;;4.67;100.00
18323;BME280;9287;49.456;11.064;2024-02-26T06:46:00;96542.88;;;4.79;100.00
18323;BME280;9287;49.456;11.064;2024-02-26T06:48:28;96544.44;;;4.80;100.00
18323;BME280;9287;49.456;11.064;2024-02-26T06:50:56;96541.97;;;4.75;100.00
18323;BME280;9287;49.456;11.064;2024-02-26T06:53:24;96544.94;;;4.70;100.00
18323;BME280;9287;49.456;11.064;2024-02-26T06:55:52;96547.19;;;4.68;100.00
18323;BME280;9287;49.456;11.064;2024-02-26T06:58:21;96559.09;;;4.79;100.00
18323;BME280;9287;49.456;11.064;2024-02-26T07:00:50;96553.00;;;4.82;100.00
18323;BME280;9287;49.456;11.064;2024-02-26T07:03:18;96562.22;;;4.81;100.00
18323;BME280;9287;49.456;11.064;2024-02-26T07:05:46;96568.09;;;4.83;100.00
18323;BME280;9287;49.456;11.064;2024-02-26T07:08:14;96566.66;;;4.74;100.00
18323;BME280;9287;49.456;11.064;2024-02-26T07:10:42;96560.38;;;4.70;100.00
18323;BME280;9287;49.456;11.064;2024-02-26T07:13:10;96555.84;;;4.74;100.00
18323;BME280;9287;49.456;11.064;2024-02-26T07:15:39;96557.31;;;4.71;100.00
18323;BME280;9287;49.456;11.064;2024-02-26T07:18:07;96560.31;;;4.66;100.00
18323;BME280;9287;49.456;11.064;2024-02-26T07:20:35;96558.22;;;4.75;100.00
18323;BME280;9287;49.456;11.064;2024-02-26T07:23:03;96561.25;;;5.05;100.00
18323;BME280;9287;49.456;11.064;2024-02-26T07:25:31;96579.91;;;5.10;100.00
18323;BME280;9287;49.456;11.064;2024-02-26T07:27:58;96594.81;;;5.20;100.00
18323;BME280;9287;49.456;11.064;2024-02-26T07:30:26;96590.31;;;4.93;100.00
18323;BME280;9287;49.456;11.064;2024-02-26T07:32:55;96610.03;;;5.09;100.00
18323;BME280;9287;49.456;11.064;2024-02-26T07:35:24;96594.22;;;5.27;100.00
18323;BME280;9287;49.456;11.064;2024-02-26T07:37:54;96586.00;;;5.23;100.00
18323;BME280;9287;49.456;11.064;2024-02-26T07:40:21;96595.97;;;5.70;100.00
18323;BME280;9287;49.456;11.064;2024-02-26T07:42:49;96585.94;;;5.54;100.00
18323;BME280;9287;49.456;11.064;2024-02-26T07:45:17;96589.09;;;5.56;100.00
18323;BME280;9287;49.456;11.064;2024-02-26T07:47:47;96579.00;;;5.73;100.00
18323;BME280;9287;49.456;11.064;2024-02-26T07:50:16;96583.34;;;5.93;100.00
18323;BME280;9287;49.456;11.064;2024-02-26T07:52:44;96578.63;;;5.90;100.00
18323;BME280;9287;49.456;11.064;2024-02-26T07:55:12;96582.09;;;5.71;100.00
18323;BME280;9287;49.456;11.064;2024-02-26T07:57:43;96584.03;;;5.90;100.00
18323;BME280;9287;49.456;11.064;2024-02-26T08:00:11;96583.16;;;5.86;100.00
18323;BME280;9287;49.456;11.064;2024-02-26T08:02:43;96585.50;;;6.03;100.00
18323;BME280;9287;49.456;11.064;2024-02-26T08:05:11;96595.19;;;5.69;100.00
18323;BME280;9287;49.456;11.064;2024-02-26T08:07:40;96602.22;;;6.09;100.00
18323;BME280;9287;49.456;11.064;2024-02-26T08:10:08;96606.94;;;5.92;100.00
18323;BME280;9287;49.456;11.064;2024-02-26T08:12:37;96609.38;;;5.98;100.00
18323;BME280;9287;49.456;11.064;2024-02-26T08:15:06;96621.41;;;6.00;100.00
18323;BME280;9287;49.456;11.064;2024-02-26T08:17:34;96622.50;;;5.80;100.00
18323;BME280;9287;49.456;11.064;2024-02-26T08:20:03;96632.81;;;5.90;100.00
18323;BME280;9287;49.456;11.064;2024-02-26T08:22:31;96642.94;;;5.93;100.00
18323;BME280;9287;49.456;11.064;2024-02-26T08:25:01;96634.44;;;5.94;100.00
18323;BME280;9287;49.456;11.064;2024-02-26T08:27:33;96637.59;;;5.97;100.00
18323;BME280;9287;49.456;11.064;2024-02-26T08:30:01;96645.94;;;6.26;100.00
18323;BME280;9287;49.456;11.064;2024-02-26T08:32:28;96644.19;;;6.15;100.00
18323;BME280;9287;49.456;11.064;2024-02-26T08:34:56;96644.66;;;6.01;100.00
18323;BME280;9287;49.456;11.064;2024-02-26T08:37:24;96641.97;;;6.20;100.00
18323;BME280;9287;49.456;11.064;2024-02-26T08:39:52;96645.94;;;6.26;100.00
18323;BME280;9287;49.456;11.064;2024-02-26T08:42:21;96651.38;;;6.26;100.00
18323;BME280;9287;49.456;11.064;2024-02-26T08:44:51;96638.69;;;6.31;100.00
18323;BME280;9287;49.456;11.064;2024-02-26T08:47:21;96636.19;;;6.41;100.00
18323;BME280;9287;49.456;11.064;2024-02-26T08:49:49;96640.66;;;6.72;100.00
18323;BME280;9287;49.456;11.064;2024-02-26T08:52:17;96639.53;;;6.73;100.00
18323;BME280;9287;49.456;11.064;2024-02-26T08:54:44;96640.22;;;6.89;100.00
18323;BME280;9287;49.456;11.064;2024-02-26T08:57:12;96631.22;;;6.85;100.00
18323;BME280;9287;49.456;11.064;2024-02-26T08:59:41;96636.25;;;6.64;100.00
18323;BME280;9287;49.456;11.064;2024-02-26T09:02:09;96633.97;;;6.66;100.00
18323;BME280;9287;49.456;11.064;2024-02-26T09:04:37;96641.88;;;6.75;100.00
18323;BME280;9287;49.456;11.064;2024-02-26T09:07:05;96630.13;;;7.13;100.00
18323;BME280;9287;49.456;11.064;2024-02-26T09:09:33;96627.88;;;7.41;100.00
18323;BME280;9287;49.456;11.064;2024-02-26T09:12:01;96624.44;;;7.71;100.00
18323;BME280;9287;49.456;11.064;2024-02-26T09:14:29;96625.53;;;8.22;100.00
18323;BME280;9287;49.456;11.064;2024-02-26T09:16:58;96630.56;;;8.20;100.00
18323;BME280;9287;49.456;11.064;2024-02-26T09:19:26;96623.81;;;7.81;100.00
18323;BME280;9287;49.456;11.064;2024-02-26T09:21:55;96619.50;;;8.06;100.00
18323;BME280;9287;49.456;11.064;2024-02-26T09:24:24;96624.78;;;8.92;100.00
18323;BME280;9287;49.456;11.064;2024-02-26T09:26:52;96619.97;;;10.32;92.86
18323;BME280;9287;49.456;11.064;2024-02-26T09:29:20;96628.16;;;9.67;90.47
18323;BME280;9287;49.456;11.064;2024-02-26T09:31:48;96621.09;;;9.62;91.44
18323;BME280;9287;49.456;11.064;2024-02-26T09:34:17;96625.88;;;9.76;90.87
18323;BME280;9287;49.456;11.064;2024-02-26T09:36:45;96630.63;;;9.90;85.71
18323;BME280;9287;49.456;11.064;2024-02-26T09:39:13;96623.72;;;10.03;85.75
18323;BME280;9287;49.456;11.064;2024-02-26T09:41:46;96618.16;;;9.89;85.08
18323;BME280;9287;49.456;11.064;2024-02-26T09:44:18;96606.31;;;9.63;90.48
18323;BME280;9287;49.456;11.064;2024-02-26T09:46:47;96587.00;;;8.87;99.89
18323;BME280;9287;49.456;11.064;2024-02-26T09:49:18;96585.41;;;8.79;100.00
18323;BME280;9287;49.456;11.064;2024-02-26T09:51:49;96586.16;;;8.09;100.00
18323;BME280;9287;49.456;11.064;2024-02-26T09:54:17;96575.34;;;8.16;100.00
18323;BME280;9287;49.456;11.064;2024-02-26T09:56:48;96575.78;;;8.52;100.00
18323;BME280;9287;49.456;11.064;2024-02-26T09:59:29;96575.44;;;8.23;100.00
18323;BME280;9287;49.456;11.064;2024-02-26T10:02:07;96586.75;;;8.59;100.00
18323;BME280;9287;49.456;11.064;2024-02-26T10:04:39;96588.44;;;8.74;100.00
18323;BME280;9287;49.456;11.064;2024-02-26T10:07:11;96604.88;;;8.81;100.00
18323;BME280;9287;49.456;11.064;2024-02-26T10:09:40;96609.00;;;9.08;100.00
18323;BME280;9287;49.456;11.064;2024-02-26T10:12:10;96618.84;;;8.83;100.00
18323;BME280;9287;49.456;11.064;2024-02-26T10:14:38;96622.38;;;8.84;100.00
18323;BME280;9287;49.456;11.064;2024-02-26T10:17:07;96627.97;;;9.01;100.00
18323;BME280;9287;49.456;11.064;2024-02-26T10:19:35;96638.31;;;8.85;100.00
18323;BME280;9287;49.456;11.064;2024-02-26T10:22:06;96639.59;;;9.39;99.23
18323;BME280;9287;49.456;11.064;2024-02-26T10:24:34;96638.41;;;9.33;98.66
18323;BME280;9287;49.456;11.064;2024-02-26T10:27:03;96632.22;;;9.39;97.63
18323;BME280;9287;49.456;11.064;2024-02-26T10:29:31;96628.81;;;9.53;95.72
18323;BME280;9287;49.456;11.064;2024-02-26T10:31:59;96631.09;;;9.44;95.70
18323;BME280;9287;49.456;11.064;2024-02-26T10:34:28;96636.78;;;9.76;94.65
18323;BME280;9287;49.456;11.064;2024-02-26T10:36:56;96636.81;;;9.80;91.09
18323;BME280;9287;49.456;11.064;2024-02-26T10:39:25;96631.44;;;9.94;87.07
18323;BME280;9287;49.456;11.064;2024-02-26T10:41:53;96644.88;;;10.27;82.21
18323;BME280;9287;49.456;11.064;2024-02-26T10:44:21;96643.84;;;10.57;81.45
18323;BME280;9287;49.456;11.064;2024-02-26T10:46:48;96644.28;;;10.66;75.10
18323;BME280;9287;49.456;11.064;2024-02-26T10:49:17;96645.81;;;10.60;75.05
18323;BME280;9287;49.456;11.064;2024-02-26T10:51:54;96644.31;;;10.80;66.48
18323;BME280;9287;49.456;11.064;2024-02-26T10:54:25;96643.59;;;11.04;67.57
18323;BME280;9287;49.456;11.064;2024-02-26T10:56:56;96643.59;;;10.90;65.03
18323;BME280;9287;49.456;11.064;2024-02-26T10:59:24;96645.94;;;11.09;64.86
18323;BME280;9287;49.456;11.064;2024-02-26T11:01:52;96642.84;;;11.29;62.07
18323;BME280;9287;49.456;11.064;2024-02-26T11:04:22;96649.09;;;11.47;60.10
18323;BME280;9287;49.456;11.064;2024-02-26T11:06:53;96649.91;;;11.40;57.65
18323;BME280;9287;49.456;11.064;2024-02-26T11:09:24;96647.53;;;11.32;57.11
18323;BME280;9287;49.456;11.064;2024-02-26T11:11:53;96654.56;;;11.61;57.13
18323;BME280;9287;49.456;11.064;2024-02-26T11:14:22;96658.50;;;11.89;55.82
18323;BME280;9287;49.456;11.064;2024-02-26T11:16:54;96650.69;;;11.41;57.15
18323;BME280;9287;49.456;11.064;2024-02-26T11:19:24;96649.88;;;12.08;56.26
18323;BME280;9287;49.456;11.064;2024-02-26T11:21:52;96652.56;;;13.16;53.16
18323;BME280;9287;49.456;11.064;2024-02-26T11:24:20;96647.00;;;12.54;52.96
18323;BME280;9287;49.456;11.064;2024-02-26T11:26:51;96642.00;;;13.70;51.01
18323;BME280;9287;49.456;11.064;2024-02-26T11:29:28;96650.47;;;13.86;50.40
18323;BME280;9287;49.456;11.064;2024-02-26T11:31:59;96652.09;;;12.48;51.75
18323;BME280;9287;49.456;11.064;2024-02-26T11:34:28;96644.09;;;12.89;51.94
18323;BME280;9287;49.456;11.064;2024-02-26T11:36:56;96637.88;;;13.92;50.31
18323;BME280;9287;49.456;11.064;2024-02-26T11:39:24;96631.72;;;13.81;49.60
18323;BME280;9287;49.456;11.064;2024-02-26T11:41:55;96636.66;;;13.52;49.82
18323;BME280;9287;49.456;11.064;2024-02-26T11:44:29;96641.19;;;14.18;48.42
18323;BME280;9287;49.456;11.064;2024-02-26T11:46:57;96637.84;;;14.00;48.66
18323;BME280;9287;49.456;11.064;2024-02-26T11:49:31;96652.03;;;13.87;49.18
18323;BME280;9287;49.456;11.064;2024-02-26T11:52:00;96647.75;;;14.24;48.80
18323;BME280;9287;49.456;11.064;2024-02-26T11:54:40;96649.78;;;15.72;45.85
18323;BME280;9287;49.456;11.064;2024-02-26T11:57:29;96654.94;;;14.86;47.65
18323;BME280;9287;49.456;11.064;2024-02-26T12:00:11;96647.44;;;13.77;49.47
18323;BME280;9287;49.456;11.064;2024-02-26T12:02:46;96651.53;;;14.75;47.42
18323;BME280;9287;49.456;11.064;2024-02-26T12:05:15;96638.19;;;14.39;48.01
18323;BME280;9287;49.456;11.064;2024-02-26T12:07:45;96629.72;;;15.45;45.92
18323;BME280;9287;49.456;11.064;2024-02-26T12:10:14;96624.16;;;16.61;44.25
18323;BME280;9287;49.456;11.064;2024-02-26T12:12:44;96632.69;;;16.47;44.40
18323;BME280;9287;49.456;11.064;2024-02-26T12:15:15;96622.47;;;16.67;42.22
18323;BME280;9287;49.456;11.064;2024-02-26T12:17:48;96629.97;;;17.03;41.38
18323;BME280;9287;49.456;11.064;2024-02-26T12:20:16;96634.50;;;17.13;42.34
18323;BME280;9287;49.456;11.064;2024-02-26T12:22:46;96631.53;;;17.04;42.89
18323;BME280;9287;49.456;11.064;2024-02-26T12:25:15;96639.31;;;18.39;40.86
18323;BME280;9287;49.456;11.064;2024-02-26T12:27:44;96636.59;;;18.23;40.15
18323;BME280;9287;49.456;11.064;2024-02-26T12:30:13;96632.78;;;17.19;42.06
18323;BME280;9287;49.456;11.064;2024-02-26T12:32:40;96637.28;;;16.93;40.83
18323;BME280;9287;49.456;11.064;2024-02-26T12:35:08;96640.22;;;17.02;41.04
18323;BME280;9287;49.456;11.064;2024-02-26T12:37:36;96639.31;;;16.30;42.87
18323;BME280;9287;49.456;11.064;2024-02-26T12:40:09;96639.34;;;15.06;46.26
18323;BME280;9287;49.456;11.064;2024-02-26T12:42:38;96640.94;;;14.02;49.42
18323;BME280;9287;49.456;11.064;2024-02-26T12:45:10;96638.31;;;13.43;51.76
18323;BME280;9287;49.456;11.064;2024-02-26T12:47:39;96640.94;;;14.73;50.42
18323;BME280;9287;49.456;11.064;2024-02-26T12:50:08;96629.16;;;16.27;45.74
18323;BME280;9287;49.456;11.064;2024-02-26T12:52:39;96627.19;;;16.87;44.89
18323;BME280;9287;49.456;11.064;2024-02-26T12:55:07;96628.00;;;15.58;45.70
18323;BME280;9287;49.456;11.064;2024-02-26T12:57:37;96632.28;;;15.82;45.63
18323;BME280;9287;49.456;11.064;2024-02-26T13:00:08;96626.78;;;15.82;45.20
18323;BME280;9287;49.456;11.064;2024-02-26T13:02:39;96643.53;;;15.68;46.06
18323;BME280;9287;49.456;11.064;2024-02-26T13:05:07;96643.78;;;16.63;42.01
18323;BME280;9287;49.456;11.064;2024-02-26T13:07:40;96644.69;;;16.37;42.29